Terminal Aerodrome Forecast
Issued by NWS

Home | Current Version | Previous Version | Text Only | Print | Product List | Glossary On
Versions: 1 2 3 4 5 6 7 8 9 10 11 12 13
000
FTUS43 KLSX 231134
TAFSUS
TAF
KSUS 231134Z 2312/2412 18004KT P6SM OVC120
     FM231700 23006KT P6SM VCTS OVC070CB
     FM232100 30012KT P6SM -SHRA VCTS BKN040CB
     FM240000 32010KT P6SM OVC070
     FM240600 30004KT P6SM BKN080
     FM241100 30004KT P6SM BKN030=

USA.gov is the U.S. government's official web portal to all federal, state and local government web resources and services.